Dripping Springs' Hourly Summary for Saturday, April 15, 2017
Hour Temp
(f)
RH
(%)
Solar Rad.
(MJ/m2)
Rainfall
(in)
Wind
(mph)
4/15/2017 12:00 AM 67 93 0 0 6.36
4/15/2017 1:00 AM 66 99 0 0 7.58
4/15/2017 2:00 AM 66 100 0 0 7.33
4/15/2017 3:00 AM 66 100 0 0 6.24
4/15/2017 4:00 AM 65 100 0 0 6.47
4/15/2017 5:00 AM 65 100 0 0 4.97
4/15/2017 6:00 AM 65 100 0 0 4.7
4/15/2017 7:00 AM 65 100 0 0 4.72
4/15/2017 8:00 AM 65 100 0.07 0 4.51
4/15/2017 9:00 AM 66 100 0.5 0 5.7
4/15/2017 10:00 AM 69 99 1.4 0 7.62
4/15/2017 11:00 AM 70 93 1.51 0 7.33
4/15/2017 12:00 PM 72 86 1.68 0 7.44
4/15/2017 1:00 PM 74 75 2.26 0 7.44
4/15/2017 2:00 PM 75 63 2.16 0 7.68
4/15/2017 3:00 PM 77 62 1.7 0 7.52
4/15/2017 4:00 PM 78 59 1.98 0 8.02
4/15/2017 5:00 PM 79 58 1.45 0 7.44
4/15/2017 6:00 PM 78 59 1 0 7.33
4/15/2017 7:00 PM 78 61 0.72 0 7.02
4/15/2017 8:00 PM 75 67 0.16 0 5.97
4/15/2017 9:00 PM 73 75 0 0 5.15
4/15/2017 10:00 PM 72 81 0 0 7.08
4/15/2017 11:00 PM 70 88 0 0 7.43
Data Summary 70 84 16.59 0.00 6.63